Time;durP1;ratioP1;P1;durP2;ratioP2;P2;SDS_P1;SDS_P2;PMS_P1;PMS_P2;Temp;Humidity;BMP_temperature;BMP_pressure;BME280_temperature;BME280_humidity;BME280_pressure;Samples;Min_cycle;Max_cycle;Signal;HPM_P1;HPM_P2
2022/07/05 00:01:34;;;;;;;4.32;2.72;;;18.20;1.00;;;;;;7369874;19;20405;-60
2022/07/05 00:04:03;;;;;;;5.07;3.05;;;18.20;1.00;;;;;;7365376;19;20010;-61
2022/07/05 00:06:33;;;;;;;4.07;2.63;;;18.20;1.00;;;;;;7367077;19;20023;-61
2022/07/05 00:09:03;;;;;;;4.47;3.15;;;18.20;1.00;;;;;;7365381;19;20676;-61
2022/07/05 00:11:36;;;;;;;3.92;2.88;;;18.20;1.00;;;;;;7369778;19;20029;-61
2022/07/05 00:14:05;;;;;;;6.25;3.10;;;18.10;1.00;;;;;;7388088;19;20009;-61
2022/07/05 00:16:35;;;;;;;4.80;3.10;;;18.10;1.00;;;;;;7365869;19;20021;-61
2022/07/05 00:19:05;;;;;;;5.75;3.20;;;18.10;1.00;;;;;;7364809;19;20018;-61
2022/07/05 00:21:35;;;;;;;6.13;3.00;;;18.10;1.00;;;;;;7367002;19;20014;-61
2022/07/05 00:24:05;;;;;;;8.98;3.03;;;18.10;1.00;;;;;;7363917;19;20006;-61
2022/07/05 00:26:37;;;;;;;4.82;2.95;;;18.10;1.00;;;;;;7365516;19;20025;-61
2022/07/05 00:29:07;;;;;;;5.65;3.25;;;18.20;1.00;;;;;;7387727;19;20022;-61
2022/07/05 00:31:37;;;;;;;5.72;3.22;;;18.20;1.00;;;;;;7367786;19;20014;-61
2022/07/05 00:34:07;;;;;;;4.95;3.08;;;18.10;1.00;;;;;;7362852;19;20086;-61
2022/07/05 00:36:37;;;;;;;3.58;3.22;;;18.00;1.00;;;;;;7366184;19;20081;-61
2022/07/05 00:39:08;;;;;;;5.40;3.30;;;17.90;1.00;;;;;;7365029;19;20011;-61
2022/07/05 00:41:41;;;;;;;7.40;3.60;;;17.90;1.00;;;;;;7369128;19;20031;-61
2022/07/05 00:44:13;;;;;;;4.25;3.08;;;17.90;1.00;;;;;;7384986;19;20024;-61
2022/07/05 00:46:46;;;;;;;4.35;3.20;;;17.90;1.00;;;;;;7363937;19;20033;-61
2022/07/05 00:49:16;;;;;;;7.05;3.60;;;17.90;1.00;;;;;;7364309;19;20010;-61
2022/07/05 00:51:46;;;;;;;5.57;3.55;;;18.00;1.00;;;;;;7366487;19;20040;-61
2022/07/05 00:54:38;;;;;;;3.45;3.05;;;18.00;1.00;;;;;;7366440;19;20539;-61
2022/07/05 00:57:10;;;;;;;4.15;3.00;;;17.80;1.00;;;;;;7365704;19;20025;-60
2022/07/05 00:59:40;;;;;;;6.93;3.70;;;17.70;1.00;;;;;;7364472;19;20018;-60
2022/07/05 01:02:10;;;;;;;5.75;3.50;;;17.70;1.00;;;;;;7389908;19;20692;-61
2022/07/05 01:04:47;;;;;;;9.38;3.88;;;17.70;1.00;;;;;;7361141;19;20007;-60
2022/07/05 01:07:18;;;;;;;6.18;3.80;;;17.60;1.00;;;;;;7366792;19;20014;-60
2022/07/05 01:09:48;;;;;;;5.20;3.50;;;17.60;1.00;;;;;;7363310;19;20013;-61
2022/07/05 01:12:20;;;;;;;6.57;3.90;;;17.50;1.00;;;;;;7366676;19;20087;-60
2022/07/05 01:14:51;;;;;;;6.47;3.72;;;17.50;1.00;;;;;;7361866;19;20102;-61
2022/07/05 01:17:21;;;;;;;5.93;3.83;;;17.40;1.00;;;;;;7386533;19;20044;-61
2022/07/05 01:19:52;;;;;;;7.78;3.67;;;17.40;1.00;;;;;;7364564;19;20013;-61
2022/07/05 01:22:23;;;;;;;7.25;3.85;;;17.20;1.00;;;;;;7366616;19;20010;-61
2022/07/05 01:24:55;;;;;;;5.70;3.13;;;17.20;1.00;;;;;;7361892;19;20029;-61
2022/07/05 01:27:25;;;;;;;5.45;3.90;;;17.10;1.30;;;;;;7363648;19;20541;-61
2022/07/05 01:29:55;;;;;;;5.38;4.03;;;17.00;1.90;;;;;;7367650;19;20006;-60
2022/07/05 01:32:25;;;;;;;6.20;3.72;;;17.10;1.00;;;;;;7386648;19;20022;-60
2022/07/05 01:34:55;;;;;;;5.57;3.63;;;17.00;1.20;;;;;;7362012;19;20022;-61
2022/07/05 01:37:25;;;;;;;4.05;3.15;;;17.00;1.50;;;;;;7364000;19;20006;-61
2022/07/05 01:39:59;;;;;;;7.63;3.45;;;16.90;1.70;;;;;;7366070;19;20015;-60
2022/07/05 01:42:29;;;;;;;6.07;3.55;;;16.90;2.20;;;;;;7366756;19;20018;-61
2022/07/05 01:44:59;;;;;;;5.15;3.45;;;16.90;2.40;;;;;;7360438;19;20081;-61
2022/07/05 01:47:29;;;;;;;6.40;4.10;;;16.80;3.70;;;;;;7361058;19;20435;-61
2022/07/05 01:50:01;;;;;;;5.97;3.63;;;16.80;5.00;;;;;;7387131;19;20024;-60
2022/07/05 01:52:34;;;;;;;6.20;4.13;;;16.60;4.90;;;;;;7365503;19;20026;-60
2022/07/05 01:55:07;;;;;;;5.80;3.75;;;16.60;6.00;;;;;;7360256;19;20077;-61
2022/07/05 01:57:37;;;;;;;9.85;4.10;;;16.50;7.30;;;;;;7360963;19;20017;-60
2022/07/05 02:00:08;;;;;;;5.45;4.10;;;16.50;8.10;;;;;;7365278;19;20085;-60
2022/07/05 02:02:42;;;;;;;7.35;3.95;;;16.40;8.50;;;;;;7365371;19;20018;-61
2022/07/05 02:05:11;;;;;;;4.88;4.13;;;16.40;9.50;;;;;;7382047;19;20481;-60
2022/07/05 02:07:49;;;;;;;4.20;3.80;;;16.40;10.40;;;;;;7360383;19;20006;-61
2022/07/05 02:10:22;;;;;;;4.50;4.10;;;16.30;11.20;;;;;;7363582;19;20022;-60
2022/07/05 02:12:51;;;;;;;4.40;3.72;;;16.20;12.10;;;;;;7364406;19;20006;-60
2022/07/05 02:15:21;;;;;;;6.25;4.20;;;16.10;12.40;;;;;;7361478;19;20018;-61
2022/07/05 02:17:51;;;;;;;4.85;3.80;;;16.10;13.50;;;;;;7361450;19;20014;-61
2022/07/05 02:20:21;;;;;;;5.80;4.15;;;16.10;13.50;;;;;;7387023;19;20006;-60
2022/07/05 02:22:51;;;;;;;7.85;4.55;;;16.10;13.80;;;;;;7370807;19;20068;-61
2022/07/05 02:25:24;;;;;;;6.00;4.05;;;16.00;14.20;;;;;;7367142;19;20011;-61
2022/07/05 02:27:55;;;;;;;5.40;3.95;;;16.10;14.60;;;;;;7369906;19;20640;-61
2022/07/05 02:30:25;;;;;;;4.95;3.92;;;16.00;14.80;;;;;;7371806;19;20014;-60
2022/07/05 02:32:55;;;;;;;6.35;4.40;;;16.00;15.40;;;;;;7370238;19;20478;-61
2022/07/05 02:35:25;;;;;;;7.88;3.80;;;16.00;15.50;;;;;;7387796;19;20014;-61
2022/07/05 02:37:55;;;;;;;6.10;4.00;;;16.10;14.80;;;;;;7368211;19;20013;-61
2022/07/05 02:40:28;;;;;;;5.45;4.18;;;16.00;14.60;;;;;;7371997;19;20010;-61
2022/07/05 02:42:57;;;;;;;7.25;4.47;;;16.00;14.70;;;;;;7371367;19;20090;-61
2022/07/05 02:45:27;;;;;;;6.93;4.00;;;16.00;13.30;;;;;;7365897;19;20031;-61
2022/07/05 02:47:57;;;;;;;9.55;4.30;;;15.90;13.80;;;;;;7367001;19;20017;-61
2022/07/05 02:50:27;;;;;;;8.82;4.68;;;16.00;14.00;;;;;;7384808;19;20018;-62
2022/07/05 02:52:57;;;;;;;8.40;4.30;;;16.00;13.70;;;;;;7392857;19;20014;-61
2022/07/05 02:55:30;;;;;;;6.50;4.38;;;16.00;13.80;;;;;;7366969;19;20028;-61
2022/07/05 02:58:00;;;;;;;7.82;4.32;;;16.00;14.60;;;;;;7367915;19;20020;-61
2022/07/05 03:00:30;;;;;;;7.82;4.75;;;16.10;14.40;;;;;;7371896;19;20006;-61
2022/07/05 03:02:59;;;;;;;4.72;4.32;;;16.10;13.00;;;;;;7370427;19;20014;-61
2022/07/05 03:05:29;;;;;;;6.90;4.50;;;16.20;10.30;;;;;;7365090;19;20026;-61
2022/07/05 03:07:59;;;;;;;6.20;4.20;;;16.10;10.70;;;;;;7385209;19;20006;-61
2022/07/05 03:10:31;;;;;;;5.20;3.92;;;16.10;11.90;;;;;;7370242;19;20521;-61
2022/07/05 03:13:01;;;;;;;6.07;4.28;;;16.00;13.10;;;;;;7370171;19;20074;-61
2022/07/05 03:15:31;;;;;;;8.13;4.80;;;15.90;13.10;;;;;;7366293;19;20014;-61
2022/07/05 03:18:01;;;;;;;7.97;4.68;;;15.80;13.60;;;;;;7367318;19;20017;-61
2022/07/05 03:20:31;;;;;;;9.23;4.28;;;15.80;14.10;;;;;;7371652;19;20006;-62
2022/07/05 03:23:01;;;;;;;10.15;4.53;;;16.00;13.60;;;;;;7391519;19;20023;-59
2022/07/05 03:25:33;;;;;;;4.10;3.70;;;15.90;13.70;;;;;;7362671;19;20465;-60
2022/07/05 03:28:03;;;;;;;7.15;4.38;;;15.80;14.60;;;;;;7368320;19;20025;-60
2022/07/05 03:30:33;;;;;;;8.07;4.80;;;15.80;15.20;;;;;;7370598;19;20006;-60
2022/07/05 03:33:03;;;;;;;10.52;4.45;;;15.70;16.20;;;;;;7369242;19;20026;-60
2022/07/05 03:35:33;;;;;;;8.75;4.88;;;15.70;16.80;;;;;;7364915;19;20014;-60
2022/07/05 03:38:03;;;;;;;6.70;5.10;;;15.70;15.10;;;;;;7388992;19;20006;-60
2022/07/05 03:40:35;;;;;;;12.20;4.65;;;15.80;14.50;;;;;;7369263;19;20016;-60
2022/07/05 03:43:05;;;;;;;8.23;4.18;;;15.70;15.10;;;;;;7369051;19;20011;-60
2022/07/05 03:45:35;;;;;;;6.50;4.40;;;15.90;15.00;;;;;;7364466;19;20010;-60
2022/07/05 03:48:05;;;;;;;6.50;4.40;;;16.40;12.10;;;;;;7366335;19;20011;-60
2022/07/05 03:50:58;;;;;;;5.53;4.07;;;16.90;8.60;;;;;;7370164;19;20094;-61
2022/07/05 03:53:29;;;;;;;4.57;3.97;;;17.30;4.30;;;;;;7375761;19;20046;-62
2022/07/05 03:56:01;;;;;;;3.90;3.45;;;17.50;2.50;;;;;;7384979;19;20021;-61
2022/07/05 03:58:31;;;;;;;5.53;3.90;;;17.80;1.00;;;;;;7367031;19;20015;-60
2022/07/05 04:01:01;;;;;;;3.75;3.40;;;18.50;1.00;;;;;;7368377;19;20494;-60
2022/07/05 04:03:31;;;;;;;4.95;3.78;;;18.80;1.00;;;;;;7368335;19;20494;-60
2022/07/05 04:06:07;;;;;;;6.22;4.18;;;19.70;1.00;;;;;;7362749;19;20085;-60
2022/07/05 04:08:37;;;;;;;4.95;3.67;;;19.30;1.00;;;;;;7366445;19;20466;-60
2022/07/05 04:11:12;;;;;;;5.72;3.70;;;19.60;1.00;;;;;;7390343;19;20022;-60
2022/07/05 04:13:42;;;;;;;6.95;3.67;;;20.10;1.00;;;;;;7368513;19;20006;-60
2022/07/05 04:16:12;;;;;;;5.78;3.97;;;20.10;1.00;;;;;;7362633;19;20036;-60
2022/07/05 04:18:42;;;;;;;6.75;3.90;;;20.40;1.00;;;;;;7366759;19;20052;-60
2022/07/05 04:21:12;;;;;;;3.55;3.22;;;20.60;1.00;;;;;;7368465;19;20016;-61
2022/07/05 04:23:42;;;;;;;5.30;3.20;;;20.50;1.00;;;;;;7367684;19;20017;-60
2022/07/05 04:26:14;;;;;;;5.05;3.20;;;20.70;1.00;;;;;;7382987;19;20018;-60
2022/07/05 04:28:44;;;;;;;5.18;3.22;;;21.00;1.00;;;;;;7366005;19;20485;-60
2022/07/05 04:31:14;;;;;;;9.82;3.20;;;21.40;1.00;;;;;;7368279;19;20007;-60
2022/07/05 04:33:44;;;;;;;8.20;3.00;;;21.60;1.00;;;;;;7367697;19;20533;-61
2022/07/05 04:36:14;;;;;;;6.03;2.80;;;22.10;1.00;;;;;;7363689;19;20018;-61
2022/07/05 04:38:44;;;;;;;3.53;2.30;;;22.10;1.00;;;;;;7364671;19;20010;-61
2022/07/05 04:41:16;;;;;;;4.35;2.65;;;22.80;1.00;;;;;;7389944;19;20505;-61
2022/07/05 04:43:46;;;;;;;5.18;2.70;;;22.20;1.00;;;;;;7365310;19;20060;-61
2022/07/05 04:46:16;;;;;;;3.65;2.42;;;22.20;1.00;;;;;;7360567;19;20509;-61
2022/07/05 04:48:46;;;;;;;3.15;2.25;;;21.10;1.00;;;;;;7365607;19;20385;-61
2022/07/05 04:51:16;;;;;;;4.43;2.55;;;22.60;1.00;;;;;;7368664;19;20035;-61
2022/07/05 04:53:47;;;;;;;3.10;2.47;;;23.60;1.00;;;;;;7367211;19;20019;-61
2022/07/05 04:56:19;;;;;;;3.03;2.28;;;24.00;1.00;;;;;;7382970;19;20018;-61
2022/07/05 04:58:49;;;;;;;3.45;2.17;;;23.00;1.00;;;;;;7363978;19;20029;-61
2022/07/05 05:01:19;;;;;;;3.72;2.10;;;23.20;1.00;;;;;;7366550;19;20430;-61
2022/07/05 05:03:49;;;;;;;6.22;2.42;;;22.90;1.00;;;;;;7365511;19;20018;-60
2022/07/05 05:06:19;;;;;;;5.18;2.10;;;23.30;1.00;;;;;;7361310;19;20011;-61
2022/07/05 05:08:49;;;;;;;3.08;1.88;;;23.60;1.00;;;;;;7364353;19;20101;-61
2022/07/05 05:11:21;;;;;;;4.65;2.08;;;23.70;1.00;;;;;;7388805;19;20018;-61
2022/07/05 05:13:51;;;;;;;3.45;2.17;;;23.20;1.00;;;;;;7366254;19;20013;-61
2022/07/05 05:16:21;;;;;;;5.40;1.73;;;23.30;1.00;;;;;;7360456;19;20010;-61
2022/07/05 05:18:51;;;;;;;2.60;2.28;;;22.90;1.00;;;;;;7364389;19;20029;-61
2022/07/05 05:21:21;;;;;;;2.70;1.80;;;23.20;1.00;;;;;;7367157;19;20013;-61
2022/07/05 05:23:51;;;;;;;4.40;1.85;;;22.40;1.00;;;;;;7365408;19;20216;-61
2022/07/05 05:26:24;;;;;;;4.22;1.48;;;21.90;1.00;;;;;;7381488;19;20011;-60
2022/07/05 05:28:53;;;;;;;1.98;1.70;;;23.00;1.00;;;;;;7362384;19;20021;-62
2022/07/05 05:31:24;;;;;;;3.42;1.45;;;23.20;1.00;;;;;;7365630;19;20010;-61
2022/07/05 05:33:54;;;;;;;2.22;1.70;;;23.00;1.00;;;;;;7363889;19;20086;-61
2022/07/05 05:36:23;;;;;;;7.68;1.50;;;22.60;1.00;;;;;;7360823;19;20021;-61
2022/07/05 05:38:53;;;;;;;1.85;1.45;;;23.60;1.00;;;;;;7362273;19;20371;-61
2022/07/05 05:41:26;;;;;;;1.73;1.42;;;23.70;1.00;;;;;;7388172;19;20344;-61
2022/07/05 05:43:56;;;;;;;3.80;1.60;;;23.30;1.00;;;;;;7364507;19;20031;-61
2022/07/05 05:46:25;;;;;;;4.60;1.65;;;23.80;1.00;;;;;;7359804;19;20011;-61
2022/07/05 05:48:55;;;;;;;2.22;1.40;;;23.70;1.00;;;;;;7361509;19;20015;-61
2022/07/05 05:51:25;;;;;;;2.10;1.40;;;23.90;1.00;;;;;;7364463;19;20014;-62
2022/07/05 05:53:56;;;;;;;3.22;1.63;;;24.40;1.00;;;;;;7364566;19;20113;-61
2022/07/05 05:56:28;;;;;;;3.97;1.58;;;23.40;1.00;;;;;;7380137;19;20102;-61
2022/07/05 05:58:58;;;;;;;3.75;1.55;;;23.10;1.00;;;;;;7359625;19;20019;-61
2022/07/05 06:01:28;;;;;;;3.45;1.70;;;23.30;1.00;;;;;;7364428;19;20016;-61
2022/07/05 06:03:58;;;;;;;2.53;1.50;;;22.90;1.00;;;;;;7362988;19;20050;-61
2022/07/05 06:06:28;;;;;;;2.78;1.40;;;23.90;1.00;;;;;;7359675;19;20485;-61
2022/07/05 06:08:58;;;;;;;3.88;1.63;;;24.10;1.00;;;;;;7362528;19;20522;-61
2022/07/05 06:11:30;;;;;;;3.90;1.85;;;23.00;1.00;;;;;;7372004;19;20011;-62
2022/07/05 06:14:00;;;;;;;3.22;1.60;;;22.30;1.00;;;;;;7383185;19;20018;-60
2022/07/05 06:16:30;;;;;;;2.38;1.35;;;21.30;1.00;;;;;;7359786;19;20011;-59
2022/07/05 06:19:01;;;;;;;2.33;1.60;;;20.70;1.00;;;;;;7359247;19;20731;-61
2022/07/05 06:21:31;;;;;;;4.40;1.80;;;20.80;1.00;;;;;;7362665;19;20016;-61
2022/07/05 06:24:01;;;;;;;2.97;1.48;;;20.60;1.00;;;;;;7360750;19;20027;-61
2022/07/05 06:26:34;;;;;;;3.72;1.73;;;21.20;1.00;;;;;;7356596;19;20064;-61
2022/07/05 06:29:04;;;;;;;5.45;1.83;;;20.40;1.00;;;;;;7381843;19;20022;-61
2022/07/05 06:31:34;;;;;;;2.75;1.80;;;21.00;1.00;;;;;;7363521;19;20007;-61
2022/07/05 06:34:04;;;;;;;5.88;1.40;;;21.60;1.00;;;;;;7361238;19;20018;-62
2022/07/05 06:36:34;;;;;;;3.10;1.58;;;22.00;1.00;;;;;;7360570;19;20651;-61
2022/07/05 06:39:03;;;;;;;3.80;1.67;;;22.10;1.00;;;;;;7359696;19;20090;-61
2022/07/05 06:41:36;;;;;;;3.97;1.70;;;23.00;1.00;;;;;;7364337;19;20014;-61
2022/07/05 06:44:06;;;;;;;5.22;1.50;;;23.50;1.00;;;;;;7381597;19;20070;-61
2022/07/05 06:46:56;;;;;;;6.18;2.10;;;23.80;1.00;;;;;;7358821;19;20010;-62
2022/07/05 06:49:26;;;;;;;5.05;2.47;;;22.90;1.00;;;;;;7359233;19;20014;-62
2022/07/05 06:51:56;;;;;;;2.67;1.60;;;22.20;1.00;;;;;;7361767;19;20027;-62
2022/07/05 06:54:26;;;;;;;7.20;1.20;;;22.00;1.00;;;;;;7359628;19;20014;-60
2022/07/05 06:57:21;;;;;;;3.20;1.45;;;21.70;1.00;;;;;;7361890;19;20010;-61
2022/07/05 07:00:01;;;;;;;2.97;1.33;;;21.70;1.00;;;;;;7361049;19;20086;-61
2022/07/05 07:02:33;;;;;;;1.48;1.30;;;21.40;1.00;;;;;;7363121;19;20130;-62
2022/07/05 07:05:03;;;;;;;2.38;1.30;;;21.50;1.00;;;;;;7378385;19;20340;-62
2022/07/05 07:10:25;;;;;;;3.65;1.40;;;21.70;1.00;;;;;;7370221;19;20011;-61
2022/07/05 07:13:01;;;;;;;3.22;1.38;;;22.10;1.00;;;;;;7370825;19;20017;-61
2022/07/05 07:15:33;;;;;;;2.83;1.60;;;22.10;1.00;;;;;;7363650;19;20021;-62
2022/07/05 07:18:03;;;;;;;1.88;1.17;;;22.30;1.00;;;;;;7367751;19;20017;-61
2022/07/05 07:20:33;;;;;;;3.50;1.42;;;21.90;1.00;;;;;;7370224;19;20011;-61
2022/07/05 07:23:03;;;;;;;3.05;1.60;;;21.70;1.00;;;;;;7392356;19;20025;-63
2022/07/05 07:25:32;;;;;;;3.10;1.80;;;22.30;1.00;;;;;;7363636;19;20014;-62
2022/07/05 07:28:10;;;;;;;3.45;1.20;;;22.70;1.00;;;;;;7366590;19;20491;-62
2022/07/05 07:30:40;;;;;;;5.47;1.40;;;22.30;1.00;;;;;;7369661;19;20022;-61
2022/07/05 07:33:10;;;;;;;4.80;1.20;;;22.30;1.00;;;;;;7371237;19;20010;-61
2022/07/05 07:36:00;;;;;;;2.28;1.13;;;22.20;1.00;;;;;;7362427;19;20010;-61
2022/07/05 07:38:30;;;;;;;2.40;1.15;;;22.70;1.00;;;;;;7366826;19;20123;-61
2022/07/05 07:41:00;;;;;;;5.13;1.00;;;23.00;1.00;;;;;;7390049;19;20021;-60
2022/07/05 07:43:32;;;;;;;3.58;0.95;;;21.90;1.00;;;;;;7367738;19;20010;-62
2022/07/05 07:46:02;;;;;;;1.33;1.00;;;22.50;1.00;;;;;;7360543;19;20017;-61
2022/07/05 07:48:33;;;;;;;2.58;1.45;;;22.50;1.00;;;;;;7362197;19;20010;-62
2022/07/05 07:51:03;;;;;;;4.78;1.25;;;23.00;1.00;;;;;;7365950;19;20474;-61
2022/07/05 07:53:33;;;;;;;4.22;1.25;;;22.90;1.00;;;;;;7367496;19;20003;-61
2022/07/05 07:56:03;;;;;;;1.50;1.00;;;23.40;1.00;;;;;;7382859;19;20025;-61
2022/07/05 07:58:35;;;;;;;2.55;1.10;;;23.10;1.00;;;;;;7365275;19;20028;-61
2022/07/05 08:01:10;;;;;;;2.00;0.98;;;22.40;1.00;;;;;;7367368;19;20011;-60
2022/07/05 08:03:40;;;;;;;1.23;1.00;;;22.70;1.00;;;;;;7368989;19;20151;-61
2022/07/05 08:06:13;;;;;;;1.17;0.90;;;22.40;1.00;;;;;;7360794;19;20010;-61
2022/07/05 08:08:44;;;;;;;1.30;1.10;;;22.70;1.00;;;;;;7365203;19;20140;-61
2022/07/05 08:11:15;;;;;;;2.90;1.30;;;22.50;1.00;;;;;;7390138;19;20077;-62
2022/07/05 08:13:48;;;;;;;1.38;1.13;;;22.70;1.00;;;;;;7367694;19;20037;-60
2022/07/05 08:16:18;;;;;;;1.73;1.08;;;22.70;1.00;;;;;;7358949;19;20446;-61
2022/07/05 08:21:38;;;;;;;5.22;1.80;;;23.30;1.00;;;;;;7367765;19;20167;-62
2022/07/05 08:24:10;;;;;;;3.38;1.30;;;23.00;1.00;;;;;;7364300;19;20023;-61
2022/07/05 08:26:40;;;;;;;3.10;1.33;;;23.60;1.00;;;;;;7361661;19;20026;-61
2022/07/05 08:29:15;;;;;;;7.50;1.50;;;23.30;1.00;;;;;;7383348;19;20022;-61
2022/07/05 08:31:54;;;;;;;6.28;1.17;;;22.70;1.00;;;;;;7366936;19;20511;-62
2022/07/05 08:34:24;;;;;;;3.88;1.60;;;23.10;1.00;;;;;;7361840;19;20032;-62
2022/07/05 08:36:53;;;;;;;4.10;1.55;;;23.40;1.00;;;;;;7363390;19;20018;-61
2022/07/05 08:39:23;;;;;;;2.70;1.42;;;23.30;1.00;;;;;;7364484;19;20033;-61
2022/07/05 08:41:54;;;;;;;3.30;1.33;;;23.40;1.00;;;;;;7367202;19;20501;-61
2022/07/05 08:44:27;;;;;;;2.38;1.20;;;23.60;1.00;;;;;;7384203;19;20411;-61
2022/07/05 08:46:59;;;;;;;6.88;1.60;;;23.90;1.00;;;;;;7361678;19;20122;-61
2022/07/05 08:49:30;;;;;;;3.08;1.85;;;24.00;1.00;;;;;;7362602;19;20017;-60
2022/07/05 08:52:05;;;;;;;4.63;1.60;;;23.80;1.00;;;;;;7365798;19;20018;-63
2022/07/05 08:54:36;;;;;;;3.22;1.20;;;23.60;1.00;;;;;;7362030;19;20017;-60
2022/07/05 08:57:06;;;;;;;1.67;1.25;;;24.00;1.00;;;;;;7362429;19;20030;-61
2022/07/05 08:59:44;;;;;;;5.43;1.30;;;24.20;1.00;;;;;;7362191;19;20035;-61
2022/07/05 09:02:18;;;;;;;3.67;1.50;;;24.10;1.00;;;;;;7385470;19;20137;-61
2022/07/05 09:04:48;;;;;;;1.73;1.20;;;24.20;1.00;;;;;;7358329;19;20014;-61
2022/07/05 09:07:20;;;;;;;3.15;1.27;;;24.00;1.00;;;;;;7363367;19;20530;-61
2022/07/05 09:09:51;;;;;;;3.20;1.33;;;24.00;1.00;;;;;;7365043;19;20061;-61
2022/07/05 09:12:22;;;;;;;2.95;1.10;;;24.40;1.00;;;;;;7361869;19;20078;-61
2022/07/05 09:14:58;;;;;;;3.43;1.00;;;24.40;1.00;;;;;;7355507;19;20466;-60
2022/07/05 09:17:30;;;;;;;1.55;1.30;;;24.10;1.00;;;;;;7367723;19;20019;-61
2022/07/05 09:20:12;;;;;;;2.78;1.20;;;24.60;1.00;;;;;;7384157;19;20014;-60
2022/07/05 09:22:47;;;;;;;2.10;1.33;;;24.60;1.00;;;;;;7364444;19;20014;-61
2022/07/05 09:25:19;;;;;;;2.97;1.48;;;24.90;1.00;;;;;;7356928;19;20081;-61
2022/07/05 09:27:57;;;;;;;1.75;1.13;;;25.10;1.00;;;;;;7361700;19;20010;-62
2022/07/05 09:30:36;;;;;;;1.48;1.00;;;24.80;1.00;;;;;;7363086;19;20488;-61
2022/07/05 09:33:08;;;;;;;1.50;0.90;;;24.50;1.00;;;;;;7365112;19;20082;-61
2022/07/05 09:35:40;;;;;;;2.70;0.93;;;24.50;1.00;;;;;;7356556;19;20026;-61
2022/07/05 09:38:20;;;;;;;3.42;0.90;;;24.90;1.00;;;;;;7383844;19;21453;-61
2022/07/05 09:40:52;;;;;;;3.90;1.10;;;25.20;1.00;;;;;;7362492;19;20074;-62
2022/07/05 09:43:23;;;;;;;1.73;1.00;;;24.70;1.00;;;;;;7363895;19;20015;-61
2022/07/05 09:46:00;;;;;;;1.40;0.70;;;24.70;1.00;;;;;;7356766;19;20017;-61
2022/07/05 09:48:31;;;;;;;1.55;0.90;;;25.10;1.00;;;;;;7359640;19;20030;-60
2022/07/05 09:51:12;;;;;;;3.85;0.90;;;25.40;1.00;;;;;;7360201;19;20534;-60
2022/07/05 09:54:03;;;;;;;3.85;1.35;;;24.90;1.00;;;;;;7360391;19;20014;-61
2022/07/05 09:56:49;;;;;;;1.90;0.80;;;25.10;1.00;;;;;;7357378;19;20030;-60
2022/07/05 09:59:21;;;;;;;2.88;1.10;;;24.90;1.00;;;;;;7381935;19;20356;-61
2022/07/05 10:01:55;;;;;;;3.47;1.20;;;25.30;1.00;;;;;;7362380;19;20018;-62
2022/07/05 10:04:25;;;;;;;1.42;0.98;;;25.70;1.00;;;;;;7358974;19;20461;-61
2022/07/05 10:06:54;;;;;;;2.05;0.90;;;25.60;1.00;;;;;;7358870;19;20014;-62
2022/07/05 10:09:25;;;;;;;3.63;1.00;;;26.10;1.00;;;;;;7360209;19;20052;-62
2022/07/05 10:11:55;;;;;;;1.08;0.90;;;25.60;1.00;;;;;;7363019;19;20018;-61
2022/07/05 10:14:26;;;;;;;1.52;0.75;;;25.80;1.00;;;;;;7381685;19;20068;-63
2022/07/05 10:17:04;;;;;;;1.92;0.80;;;25.20;1.00;;;;;;7358780;19;20017;-62
2022/07/05 10:19:39;;;;;;;3.15;1.00;;;25.90;1.00;;;;;;7358278;19;20067;-64
2022/07/05 10:22:09;;;;;;;2.55;0.88;;;25.20;1.00;;;;;;7363509;19;20010;-61
2022/07/05 10:24:49;;;;;;;2.33;0.88;;;25.30;1.00;;;;;;7357090;19;20011;-61
2022/07/05 10:27:21;;;;;;;1.40;0.80;;;25.70;1.00;;;;;;7360655;19;20019;-61
2022/07/05 10:29:52;;;;;;;3.33;0.88;;;25.80;1.00;;;;;;7360793;19;20065;-61
2022/07/05 10:32:25;;;;;;;4.15;0.90;;;25.40;1.00;;;;;;7385711;19;20096;-61
2022/07/05 10:34:57;;;;;;;2.78;0.80;;;25.40;1.00;;;;;;7359033;19;20025;-62
2022/07/05 10:37:29;;;;;;;1.58;0.75;;;25.90;1.00;;;;;;7360591;19;20021;-62
2022/07/05 10:40:01;;;;;;;7.13;0.85;;;26.00;1.00;;;;;;7361760;19;20481;-62
2022/07/05 10:42:34;;;;;;;2.63;0.88;;;26.10;1.00;;;;;;7364654;19;20017;-62
2022/07/05 10:45:05;;;;;;;2.38;1.45;;;25.70;1.00;;;;;;7366150;19;20021;-62
2022/07/05 10:47:37;;;;;;;2.33;0.80;;;25.90;1.00;;;;;;7367657;19;20010;-61
2022/07/05 10:50:08;;;;;;;2.33;0.90;;;26.00;1.00;;;;;;7386480;19;20082;-62
2022/07/05 10:52:38;;;;;;;2.67;0.82;;;25.60;1.00;;;;;;7370441;19;20021;-63
2022/07/05 10:55:22;;;;;;;1.58;0.80;;;25.90;1.00;;;;;;7362033;19;20014;-63
2022/07/05 10:58:07;;;;;;;;;;;26.30;1.00;;;;;;7370386;19;20017;-61
2022/07/05 11:00:37;;;;;;;2.08;0.75;;;26.60;1.00;;;;;;7367421;19;19915;-63
2022/07/05 11:03:36;;;;;;;1.10;0.73;;;26.30;1.00;;;;;;7368814;19;20022;-62
2022/07/05 11:06:07;;;;;;;4.15;0.88;;;26.10;1.00;;;;;;7363126;19;20086;-62
2022/07/05 11:09:08;;;;;;;1.95;0.95;;;26.30;1.00;;;;;;7368260;19;20342;-62
2022/07/05 11:11:39;;;;;;;1.50;0.75;;;25.90;1.00;;;;;;7367222;19;20482;-63
2022/07/05 11:14:37;;;;;;;1.83;0.82;;;25.90;1.00;;;;;;7386742;19;20018;-62
2022/07/05 11:17:25;;;;;;;1.67;0.73;;;26.80;1.00;;;;;;7365208;19;20206;-62
2022/07/05 11:20:32;;;;;;;2.35;0.77;;;26.60;1.00;;;;;;7365599;19;20002;-61
2022/07/05 11:23:07;;;;;;;1.98;0.95;;;26.30;1.00;;;;;;7367704;19;20034;-62
2022/07/05 11:25:42;;;;;;;2.95;1.17;;;26.80;1.00;;;;;;7362389;19;20018;-62
2022/07/05 11:28:19;;;;;;;3.10;1.08;;;26.50;1.00;;;;;;7365537;19;20006;-62
2022/07/05 11:31:06;;;;;;;1.05;0.90;;;26.60;1.00;;;;;;7364706;19;20070;-61
2022/07/05 11:33:39;;;;;;;4.65;0.80;;;26.40;1.00;;;;;;7369152;19;20011;-62
2022/07/05 11:36:26;;;;;;;2.53;0.90;;;26.20;1.00;;;;;;7361454;19;20012;-62
2022/07/05 11:39:17;;;;;;;3.63;0.85;;;26.10;1.00;;;;;;7367089;19;20007;-62
2022/07/05 11:41:48;;;;;;;1.63;1.00;;;26.40;1.00;;;;;;7369029;19;20043;-62
2022/07/05 11:44:18;;;;;;;1.20;0.88;;;25.70;1.00;;;;;;7389923;19;20015;-62
2022/07/05 11:46:48;;;;;;;2.20;0.95;;;26.00;1.00;;;;;;7364716;19;20081;-63
2022/07/05 11:49:23;;;;;;;1.92;1.08;;;26.20;1.00;;;;;;7364562;19;20014;-62
2022/07/05 11:52:01;;;;;;;3.08;0.90;;;26.10;1.00;;;;;;7369197;19;20376;-62
2022/07/05 11:54:33;;;;;;;1.92;1.00;;;26.60;1.00;;;;;;7366411;19;20018;-62
2022/07/05 11:57:04;;;;;;;0.98;0.80;;;26.60;1.00;;;;;;7363879;19;20011;-62
2022/07/05 11:59:35;;;;;;;2.33;0.90;;;26.80;1.00;;;;;;7365947;19;20355;-62
2022/07/05 12:02:11;;;;;;;1.85;0.90;;;26.50;1.00;;;;;;7390903;19;20046;-62
2022/07/05 12:04:41;;;;;;;3.10;0.98;;;26.40;1.00;;;;;;7366013;19;20078;-62
2022/07/05 12:07:14;;;;;;;1.50;0.90;;;26.40;1.00;;;;;;7366736;19;20010;-63
2022/07/05 12:15:10;;;;;;;1.85;0.80;;;26.30;1.00;;;;;;7363168;19;20010;-62
2022/07/05 12:17:41;;;;;;;1.48;0.80;;;26.60;1.00;;;;;;7366591;19;20010;-62
2022/07/05 12:20:13;;;;;;;1.60;1.00;;;26.30;1.00;;;;;;7386288;19;20226;-61
2022/07/05 12:22:47;;;;;;;2.08;0.90;;;26.70;1.00;;;;;;7367861;19;20474;-62
2022/07/05 12:25:21;;;;;;;1.05;0.90;;;26.40;1.00;;;;;;7362959;19;20683;-61
2022/07/05 12:27:52;;;;;;;3.83;1.15;;;26.50;1.00;;;;;;7368160;19;20014;-62
2022/07/05 12:30:23;;;;;;;2.40;1.00;;;26.90;1.00;;;;;;7362274;19;20082;-62
2022/07/05 12:32:58;;;;;;;2.33;1.08;;;27.30;1.00;;;;;;7366841;19;20021;-62
2022/07/05 12:35:36;;;;;;;1.08;0.80;;;27.40;1.00;;;;;;7371583;19;20094;-62
2022/07/05 12:38:16;;;;;;;2.30;1.00;;;26.80;1.00;;;;;;7389898;19;20359;-61
2022/07/05 12:40:48;;;;;;;5.10;0.98;;;26.40;1.00;;;;;;7363990;19;20015;-62
2022/07/05 12:43:20;;;;;;;2.28;1.30;;;26.60;1.00;;;;;;7367312;19;20018;-62
2022/07/05 12:46:03;;;;;;;2.67;1.00;;;27.30;1.00;;;;;;7361318;19;20015;-61
2022/07/05 12:48:34;;;;;;;2.80;1.13;;;26.30;1.00;;;;;;7367054;19;20014;-62
2022/07/05 12:51:05;;;;;;;3.83;0.95;;;26.10;1.00;;;;;;7365874;19;20010;-63
2022/07/05 12:59:40;;;;;;;2.67;1.00;;;26.80;1.00;;;;;;7363913;19;20011;-63
2022/07/05 13:02:13;;;;;;;6.95;1.50;;;27.30;1.00;;;;;;7389078;19;20506;-63
2022/07/05 13:04:55;;;;;;;3.65;1.10;;;26.90;1.00;;;;;;7361852;19;20007;-64
2022/07/05 13:07:28;;;;;;;2.30;0.80;;;26.60;1.00;;;;;;7365293;19;20007;-63
2022/07/05 13:10:22;;;;;;;3.72;0.95;;;26.60;1.00;;;;;;7361919;19;20089;-63
2022/07/05 13:12:52;;;;;;;2.28;1.00;;;26.30;1.00;;;;;;7367649;19;20044;-63
2022/07/05 13:15:22;;;;;;;3.13;1.17;;;27.10;1.00;;;;;;7362363;19;20094;-62
2022/07/05 13:17:53;;;;;;;2.35;0.85;;;27.60;1.00;;;;;;7365950;19;20083;-63
2022/07/05 13:20:23;;;;;;;3.63;0.90;;;27.00;1.00;;;;;;7385596;19;20034;-63
2022/07/05 13:22:53;;;;;;;2.80;0.98;;;26.90;1.00;;;;;;7363754;19;20078;-63
2022/07/05 13:25:27;;;;;;;2.38;0.93;;;26.60;1.00;;;;;;7357033;19;20010;-64
2022/07/05 13:27:57;;;;;;;1.00;0.80;;;26.90;1.00;;;;;;7364557;19;20006;-63
2022/07/05 13:30:27;;;;;;;2.45;1.13;;;26.90;1.00;;;;;;7360570;19;20006;-64
2022/07/05 13:32:57;;;;;;;3.40;1.58;;;27.20;1.00;;;;;;7365293;19;20007;-63
2022/07/05 13:35:27;;;;;;;3.33;2.20;;;27.50;1.00;;;;;;7381389;19;20085;-63
2022/07/05 13:38:03;;;;;;;3.35;1.95;;;27.40;1.00;;;;;;7386353;19;20470;-64
2022/07/05 13:40:35;;;;;;;0.93;0.82;;;26.70;1.00;;;;;;7361679;19;20014;-63